createdAt,value
2023-03-06T00:01:50.126Z,-5.66
2023-03-06T00:04:54.096Z,-5.12
2023-03-06T00:07:57.491Z,-4.57
2023-03-06T00:11:01.469Z,-4.06
2023-03-06T00:14:04.961Z,-3.69
2023-03-06T00:17:08.621Z,-3.58
2023-03-06T00:20:12.862Z,-3.56
2023-03-06T00:23:16.145Z,-3.56
2023-03-06T00:26:19.467Z,-3.51
2023-03-06T00:29:22.991Z,-3.57
2023-03-06T00:32:27.371Z,-3.63
2023-03-06T00:35:32.001Z,-3.74
2023-03-06T00:38:36.331Z,-3.77
2023-03-06T00:41:39.717Z,-3.80
2023-03-06T00:44:43.040Z,-3.84
2023-03-06T00:47:46.311Z,-3.96
2023-03-06T00:50:50.938Z,-4.00
2023-03-06T00:53:54.161Z,-4.03
2023-03-06T00:56:57.403Z,-4.06
2023-03-06T01:00:01.112Z,-4.03
2023-03-06T01:03:04.475Z,-4.03
2023-03-06T01:06:08.172Z,-4.03
2023-03-06T01:09:11.731Z,-4.07
2023-03-06T01:12:15.021Z,-4.06
2023-03-06T01:15:18.325Z,-3.96
2023-03-06T01:18:21.529Z,-3.88
2023-03-06T01:21:25.162Z,-3.77
2023-03-06T01:24:29.280Z,-3.74
2023-03-06T01:27:33.338Z,-3.70
2023-03-06T01:30:36.531Z,-3.72
2023-03-06T01:33:39.932Z,-3.67
2023-03-06T01:36:43.120Z,-3.59
2023-03-06T01:39:46.545Z,-3.52
2023-03-06T01:42:51.202Z,-3.45
2023-03-06T01:46:12.824Z,-3.35
2023-03-06T01:49:27.424Z,-3.26
2023-03-06T01:52:49.056Z,-3.15
2023-03-06T01:55:52.525Z,-3.07
2023-03-06T01:58:55.972Z,-2.95
2023-03-06T02:02:02.566Z,-2.84
2023-03-06T02:05:07.407Z,-2.76
2023-03-06T02:08:11.724Z,-2.70
2023-03-06T02:11:19.914Z,-2.70
2023-03-06T02:14:24.296Z,-2.68
2023-03-06T02:17:28.599Z,-2.64
2023-03-06T02:20:48.877Z,-2.63
2023-03-06T02:23:58.369Z,-2.54
2023-03-06T02:27:05.250Z,-2.55
2023-03-06T02:30:11.008Z,-2.46
2023-03-06T02:33:19.620Z,-2.43
2023-03-06T02:36:22.934Z,-2.40
2023-03-06T02:39:28.629Z,-2.32
2023-03-06T02:42:32.105Z,-2.16
2023-03-06T02:45:46.203Z,-2.04
2023-03-06T02:48:49.496Z,-2.01
2023-03-06T02:51:52.864Z,-1.93
2023-03-06T02:54:56.241Z,-1.79
2023-03-06T02:58:00.335Z,-1.73
2023-03-06T03:01:05.125Z,-1.61
2023-03-06T03:04:09.026Z,-1.48
2023-03-06T03:07:13.602Z,-1.34
2023-03-06T03:10:17.348Z,-1.32
2023-03-06T03:13:21.432Z,-1.12
2023-03-06T03:16:25.659Z,-1.00
2023-03-06T03:19:29.118Z,-0.91
2023-03-06T03:22:32.591Z,-0.84
2023-03-06T03:25:35.863Z,-0.76
2023-03-06T03:28:39.527Z,-0.68
2023-03-06T03:31:42.983Z,-0.65
2023-03-06T03:34:46.250Z,-0.59
2023-03-06T03:37:49.863Z,-0.49
2023-03-06T03:40:53.157Z,-0.42
2023-03-06T03:43:56.831Z,-0.34
2023-03-06T03:47:00.508Z,-0.24
2023-03-06T03:50:04.097Z,-0.15
2023-03-06T03:53:07.748Z,-0.08
2023-03-06T03:56:11.751Z,-0.02
2023-03-06T03:59:22.253Z,0.01
2023-03-06T04:02:40.510Z,-0.02
2023-03-06T04:06:01.141Z,-0.01
2023-03-06T04:09:05.286Z,0.00
2023-03-06T04:12:09.305Z,0.03
2023-03-06T04:15:14.355Z,0.02
2023-03-06T04:18:18.176Z,0.03
2023-03-06T04:21:22.064Z,0.21
2023-03-06T04:24:25.382Z,0.41
2023-03-06T04:27:28.715Z,0.58
2023-03-06T04:30:32.604Z,0.73
2023-03-06T04:33:36.061Z,0.85
2023-03-06T04:36:39.385Z,0.88
2023-03-06T04:39:47.310Z,0.91
2023-03-06T04:42:50.550Z,0.76
2023-03-06T04:45:53.874Z,0.69
2023-03-06T04:48:57.164Z,0.65
2023-03-06T04:52:00.581Z,0.74
2023-03-06T04:55:09.322Z,0.76
2023-03-06T04:58:14.871Z,0.82
2023-03-06T05:01:18.171Z,0.94
2023-03-06T05:04:21.481Z,1.07
2023-03-06T05:07:24.847Z,1.21
2023-03-06T05:10:28.689Z,1.34
2023-03-06T05:13:31.980Z,1.56
2023-03-06T05:16:35.307Z,1.85
2023-03-06T05:19:38.774Z,1.95
2023-03-06T05:22:42.434Z,2.01
2023-03-06T05:25:45.815Z,2.05
2023-03-06T05:28:49.066Z,2.09
2023-03-06T05:31:52.450Z,2.13
2023-03-06T05:34:56.156Z,2.19
2023-03-06T05:37:59.412Z,2.29
2023-03-06T05:41:04.030Z,2.30
2023-03-06T05:44:07.663Z,2.28
2023-03-06T05:47:12.651Z,2.28
2023-03-06T05:50:15.677Z,2.43
2023-03-06T05:53:18.996Z,2.52
2023-03-06T05:56:22.609Z,2.57
2023-03-06T05:59:30.065Z,2.59
2023-03-06T06:02:33.355Z,2.47
2023-03-06T06:05:40.750Z,2.49
2023-03-06T06:08:44.350Z,2.54
2023-03-06T06:11:47.648Z,2.61
2023-03-06T06:14:50.961Z,2.69
2023-03-06T06:17:54.125Z,2.78
2023-03-06T06:20:57.413Z,2.83
2023-03-06T06:24:00.691Z,2.75
2023-03-06T06:27:04.677Z,2.78
2023-03-06T06:30:09.548Z,2.83
2023-03-06T06:33:12.585Z,2.93
2023-03-06T06:36:25.130Z,2.88
2023-03-06T06:39:29.497Z,2.76
2023-03-06T06:42:39.040Z,2.75
2023-03-06T06:45:45.019Z,2.67
2023-03-06T06:48:57.267Z,2.65
2023-03-06T06:52:00.911Z,2.60
2023-03-06T06:55:04.193Z,2.63
2023-03-06T06:58:07.502Z,2.62
2023-03-06T07:01:13.513Z,2.63
2023-03-06T07:04:17.145Z,2.62
2023-03-06T07:07:20.379Z,2.62
2023-03-06T07:10:24.113Z,2.62
2023-03-06T07:13:27.466Z,2.56
2023-03-06T07:16:30.756Z,2.52
2023-03-06T07:19:34.353Z,2.42
2023-03-06T07:22:50.381Z,2.36
2023-03-06T07:25:55.868Z,2.36
2023-03-06T07:28:59.292Z,2.32
2023-03-06T07:32:02.735Z,2.30
2023-03-06T07:35:19.805Z,2.31
2023-03-06T07:38:24.033Z,2.28
2023-03-06T07:41:27.877Z,2.26
2023-03-06T07:44:31.141Z,2.26
2023-03-06T07:47:34.341Z,2.30
2023-03-06T07:50:39.749Z,2.31
2023-03-06T07:53:43.049Z,2.31
2023-03-06T07:56:46.339Z,2.30
2023-03-06T07:59:49.537Z,2.26
2023-03-06T08:02:52.819Z,2.25
2023-03-06T08:05:56.129Z,2.21
2023-03-06T08:08:59.486Z,2.18
2023-03-06T08:12:03.164Z,2.12
2023-03-06T08:15:06.990Z,1.96
2023-03-06T08:18:10.228Z,1.88
2023-03-06T08:21:16.734Z,1.79
2023-03-06T08:24:20.164Z,1.75
2023-03-06T08:27:23.514Z,1.76
2023-03-06T08:30:26.721Z,1.75
2023-03-06T08:33:29.962Z,1.73
2023-03-06T08:36:33.822Z,1.64
2023-03-06T08:39:37.076Z,1.55
2023-03-06T08:42:40.411Z,1.52
2023-03-06T08:45:43.755Z,1.43
2023-03-06T08:48:50.597Z,1.37
2023-03-06T08:51:53.817Z,1.25
2023-03-06T08:54:58.706Z,0.93
2023-03-06T08:58:02.790Z,0.70
2023-03-06T09:01:08.090Z,0.41
2023-03-06T09:04:12.592Z,0.28
2023-03-06T09:07:15.994Z,0.14
2023-03-06T09:10:21.658Z,-0.02
2023-03-06T09:13:24.964Z,-0.11
2023-03-06T09:16:28.449Z,-0.02
2023-03-06T09:19:32.018Z,0.05
2023-03-06T09:22:35.472Z,0.00
2023-03-06T09:25:38.702Z,0.00
2023-03-06T09:28:42.511Z,0.03
2023-03-06T09:31:46.510Z,-0.06
2023-03-06T09:34:50.130Z,-0.14
2023-03-06T09:37:53.426Z,-0.16
2023-03-06T09:41:00.869Z,-0.22
2023-03-06T09:44:09.781Z,-0.26
2023-03-06T09:47:34.622Z,-0.28
2023-03-06T09:51:02.236Z,-0.32
2023-03-06T09:54:16.023Z,-0.31
2023-03-06T09:57:28.520Z,-0.39
2023-03-06T10:00:57.112Z,-0.47
2023-03-06T10:04:18.757Z,-0.54
2023-03-06T10:07:47.433Z,-0.56
2023-03-06T10:11:06.359Z,-0.64
2023-03-06T10:14:28.616Z,-0.71
2023-03-06T10:17:42.986Z,-0.72
2023-03-06T10:21:13.416Z,-0.76
2023-03-06T10:24:32.068Z,-0.80
2023-03-06T10:27:57.229Z,-0.88
2023-03-06T10:31:17.457Z,-0.92
2023-03-06T10:34:29.517Z,-0.93
2023-03-06T10:37:32.727Z,-0.92
2023-03-06T10:40:51.754Z,-0.86
2023-03-06T10:44:01.100Z,-0.89
2023-03-06T10:47:35.592Z,-0.91
2023-03-06T10:50:39.000Z,-0.92
2023-03-06T10:53:51.527Z,-0.89
2023-03-06T10:56:55.031Z,-0.87
2023-03-06T11:00:07.610Z,-0.81
2023-03-06T11:03:21.082Z,-0.85
2023-03-06T11:06:36.347Z,-0.90
2023-03-06T11:09:39.703Z,-0.85
2023-03-06T11:12:44.280Z,-0.85
2023-03-06T11:16:25.769Z,-0.90
2023-03-06T11:19:30.486Z,-0.96
2023-03-06T11:22:34.309Z,-0.92
2023-03-06T11:25:51.325Z,-0.96
2023-03-06T11:29:19.575Z,-0.94
2023-03-06T11:32:30.750Z,-0.94
2023-03-06T11:35:44.614Z,-0.98
2023-03-06T11:38:53.266Z,-1.01
2023-03-06T11:42:07.470Z,-0.95
2023-03-06T11:45:38.073Z,-0.96
2023-03-06T11:48:53.039Z,-0.94
2023-03-06T11:52:00.321Z,-1.00
2023-03-06T11:55:03.892Z,-0.99
2023-03-06T11:58:23.039Z,-1.00
2023-03-06T12:01:42.613Z,-0.94
2023-03-06T12:05:07.691Z,-0.92
2023-03-06T12:08:22.941Z,-0.97
2023-03-06T12:11:46.073Z,-0.96
2023-03-06T12:15:16.996Z,-1.05
2023-03-06T12:18:44.970Z,-1.09
2023-03-06T12:22:06.560Z,-1.13
2023-03-06T12:25:26.380Z,-1.16
2023-03-06T12:29:08.312Z,-1.23
2023-03-06T12:32:35.854Z,-1.29
2023-03-06T12:35:52.039Z,-1.31
2023-03-06T12:39:05.459Z,-1.36
2023-03-06T12:42:34.610Z,-1.38
2023-03-06T12:45:39.086Z,-1.39
2023-03-06T12:48:46.641Z,-1.37
2023-03-06T12:51:50.036Z,-1.43
2023-03-06T12:54:55.325Z,-1.43
2023-03-06T12:58:37.379Z,-1.44
2023-03-06T13:02:09.254Z,-1.47
2023-03-06T13:05:18.332Z,-1.51
2023-03-06T13:08:44.244Z,-1.55
2023-03-06T13:12:18.327Z,-1.53
2023-03-06T13:15:30.820Z,-1.52
2023-03-06T13:18:34.175Z,-1.53
2023-03-06T13:21:43.398Z,-1.55
2023-03-06T13:24:46.731Z,-1.57
2023-03-06T13:27:55.887Z,-1.57
2023-03-06T13:30:59.328Z,-1.55
2023-03-06T13:34:33.203Z,-1.53
2023-03-06T13:37:39.352Z,-1.55
2023-03-06T13:40:42.663Z,-1.57
2023-03-06T13:43:46.881Z,-1.59
2023-03-06T13:47:20.435Z,-1.56
2023-03-06T13:50:34.286Z,-1.58
2023-03-06T13:53:48.336Z,-1.62
2023-03-06T13:57:02.563Z,-1.66
2023-03-06T14:00:11.767Z,-1.68
2023-03-06T14:03:48.492Z,-1.72
2023-03-06T14:07:14.625Z,-1.73
2023-03-06T14:10:23.184Z,-1.81
2023-03-06T14:13:45.268Z,-1.85
2023-03-06T14:16:51.720Z,-1.87
2023-03-06T14:19:58.277Z,-1.93
2023-03-06T14:23:22.624Z,-1.98
2023-03-06T14:26:28.349Z,-1.97
2023-03-06T14:29:34.424Z,-2.00
2023-03-06T14:32:39.883Z,-1.99
2023-03-06T14:35:43.274Z,-2.02
2023-03-06T14:38:52.265Z,-2.00
2023-03-06T14:42:17.378Z,-2.01
2023-03-06T14:45:21.295Z,-2.00
2023-03-06T14:48:27.762Z,-2.03
2023-03-06T14:51:34.006Z,-2.03
2023-03-06T14:54:40.253Z,-1.97
2023-03-06T14:57:43.835Z,-1.98
2023-03-06T15:00:50.781Z,-1.94
2023-03-06T15:03:58.022Z,-1.89
2023-03-06T15:07:01.398Z,-1.89
2023-03-06T15:10:07.226Z,-1.88
2023-03-06T15:13:25.760Z,-1.83
2023-03-06T15:16:31.042Z,-1.82
2023-03-06T15:19:41.492Z,-1.73
2023-03-06T15:22:44.938Z,-1.66
2023-03-06T15:26:00.850Z,-1.55
2023-03-06T15:29:10.596Z,-1.47
2023-03-06T15:32:36.482Z,-1.40
2023-03-06T15:35:40.098Z,-1.39
2023-03-06T15:38:46.237Z,-1.36
2023-03-06T15:41:49.891Z,-1.29
2023-03-06T15:45:04.326Z,-1.25
2023-03-06T15:48:17.815Z,-1.23
2023-03-06T15:51:21.964Z,-1.24
2023-03-06T15:54:25.991Z,-1.21
2023-03-06T15:57:30.314Z,-1.22
2023-03-06T16:00:40.719Z,-1.20
2023-03-06T16:03:46.207Z,-1.22
2023-03-06T16:06:50.029Z,-1.25
2023-03-06T16:09:54.231Z,-1.26
2023-03-06T16:13:05.215Z,-1.28
2023-03-06T16:16:15.829Z,-1.28
2023-03-06T16:19:27.168Z,-1.27
2023-03-06T16:22:32.189Z,-1.32
2023-03-06T16:25:35.610Z,-1.37
2023-03-06T16:28:42.235Z,-1.37
2023-03-06T16:31:45.483Z,-1.36
2023-03-06T16:34:49.249Z,-1.36
2023-03-06T16:37:53.004Z,-1.36
2023-03-06T16:40:57.153Z,-1.35
2023-03-06T16:44:00.453Z,-1.43
2023-03-06T16:47:04.051Z,-1.48
2023-03-06T16:50:16.736Z,-1.52
2023-03-06T16:53:20.186Z,-1.54
2023-03-06T16:56:23.547Z,-1.57
2023-03-06T16:59:26.815Z,-1.59
2023-03-06T17:02:30.399Z,-1.60
2023-03-06T17:05:35.006Z,-1.61
2023-03-06T17:08:38.356Z,-1.63
2023-03-06T17:11:44.053Z,-1.68
2023-03-06T17:14:47.304Z,-1.69
2023-03-06T17:17:52.348Z,-1.69
2023-03-06T17:20:56.557Z,-1.67
2023-03-06T17:24:02.459Z,-1.71
2023-03-06T17:27:06.027Z,-1.71
2023-03-06T17:30:10.892Z,-1.72
2023-03-06T17:33:13.778Z,-1.69
2023-03-06T17:36:17.962Z,-1.72
2023-03-06T17:39:21.203Z,-1.77
2023-03-06T17:42:24.604Z,-1.81
2023-03-06T17:45:29.792Z,-1.85
2023-03-06T17:48:33.308Z,-1.87
2023-03-06T17:51:36.659Z,-1.92
2023-03-06T17:54:40.011Z,-1.96
2023-03-06T17:57:43.220Z,-2.07
2023-03-06T18:00:46.673Z,-2.15
2023-03-06T18:03:51.720Z,-2.21
2023-03-06T18:06:55.082Z,-2.28
2023-03-06T18:09:58.481Z,-2.32
2023-03-06T18:13:01.857Z,-2.38
2023-03-06T18:16:06.388Z,-2.38
2023-03-06T18:19:12.046Z,-2.37
2023-03-06T18:22:16.083Z,-2.41
2023-03-06T18:25:19.328Z,-2.44
2023-03-06T18:28:22.514Z,-2.49
2023-03-06T18:31:34.080Z,-2.53
2023-03-06T18:34:38.137Z,-2.58
2023-03-06T18:37:41.356Z,-2.63
2023-03-06T18:40:44.603Z,-2.65
2023-03-06T18:43:53.558Z,-2.65
2023-03-06T18:46:56.918Z,-2.65
2023-03-06T18:50:00.279Z,-2.64
2023-03-06T18:53:03.606Z,-2.65
2023-03-06T18:56:07.911Z,-2.68
2023-03-06T18:59:16.420Z,-2.68
2023-03-06T19:02:21.955Z,-2.70
2023-03-06T19:05:25.204Z,-2.63
2023-03-06T19:08:28.474Z,-2.62
2023-03-06T19:11:32.920Z,-2.59
2023-03-06T19:14:37.064Z,-2.56
2023-03-06T19:17:40.386Z,-2.55
2023-03-06T19:20:44.856Z,-2.53
2023-03-06T19:23:48.620Z,-2.58
2023-03-06T19:26:52.028Z,-2.67
2023-03-06T19:29:55.195Z,-2.71
2023-03-06T19:32:58.724Z,-2.71
2023-03-06T19:36:03.441Z,-2.70
2023-03-06T19:39:08.117Z,-2.67
2023-03-06T19:42:13.675Z,-2.65
2023-03-06T19:45:17.251Z,-2.65
2023-03-06T19:48:22.698Z,-2.71
2023-03-06T19:51:27.083Z,-2.78
2023-03-06T19:54:32.413Z,-2.82
2023-03-06T19:57:35.912Z,-2.82
2023-03-06T20:00:39.471Z,-2.81
2023-03-06T20:03:43.560Z,-2.77
2023-03-06T20:06:47.464Z,-2.73
2023-03-06T20:09:50.858Z,-2.75
2023-03-06T20:12:54.300Z,-2.77
2023-03-06T20:15:58.584Z,-2.76
2023-03-06T20:19:02.462Z,-2.76
2023-03-06T20:22:05.803Z,-2.76
2023-03-06T20:25:09.731Z,-2.82
2023-03-06T20:28:12.921Z,-2.89
2023-03-06T20:31:21.398Z,-2.92
2023-03-06T20:34:26.471Z,-2.99
2023-03-06T20:37:30.222Z,-3.08
2023-03-06T20:40:33.473Z,-3.12
2023-03-06T20:43:36.752Z,-3.20
2023-03-06T20:46:40.143Z,-3.26
2023-03-06T20:49:43.575Z,-3.29
2023-03-06T20:52:46.781Z,-3.32
2023-03-06T20:55:50.812Z,-3.34
2023-03-06T20:58:54.732Z,-3.39
2023-03-06T21:01:58.032Z,-3.45
2023-03-06T21:05:01.607Z,-3.51
2023-03-06T21:08:05.317Z,-3.56
2023-03-06T21:11:08.840Z,-3.57
2023-03-06T21:14:13.964Z,-3.56
2023-03-06T21:17:17.382Z,-3.53
2023-03-06T21:20:20.702Z,-3.50
2023-03-06T21:23:23.971Z,-3.50
2023-03-06T21:26:30.756Z,-3.50
2023-03-06T21:29:34.094Z,-3.46
2023-03-06T21:32:37.370Z,-3.46
2023-03-06T21:35:45.098Z,-3.46
2023-03-06T21:38:49.757Z,-3.46
2023-03-06T21:41:53.058Z,-3.49
2023-03-06T21:44:56.284Z,-3.51
2023-03-06T21:48:00.839Z,-3.50
2023-03-06T21:51:24.827Z,-3.52
2023-03-06T21:54:29.930Z,-3.56
2023-03-06T21:57:33.247Z,-3.52
2023-03-06T22:00:36.901Z,-3.51
2023-03-06T22:03:40.426Z,-3.51
2023-03-06T22:06:43.719Z,-3.54
2023-03-06T22:09:47.101Z,-3.57
2023-03-06T22:12:50.458Z,-3.56
2023-03-06T22:15:54.337Z,-3.56
2023-03-06T22:18:57.894Z,-3.52
2023-03-06T22:22:01.181Z,-3.49
2023-03-06T22:25:05.704Z,-3.49
2023-03-06T22:28:09.113Z,-3.47
2023-03-06T22:31:16.033Z,-3.41
2023-03-06T22:34:19.580Z,-3.39
2023-03-06T22:37:22.943Z,-3.38
2023-03-06T22:40:26.774Z,-3.35
2023-03-06T22:43:30.741Z,-3.32
2023-03-06T22:46:34.065Z,-3.33
2023-03-06T22:49:38.827Z,-3.30
2023-03-06T22:52:41.881Z,-3.22
2023-03-06T22:55:45.199Z,-3.23
2023-03-06T22:58:48.954Z,-3.23
2023-03-06T23:01:52.238Z,-3.21
2023-03-06T23:04:55.514Z,-3.19
2023-03-06T23:07:58.718Z,-3.16
2023-03-06T23:11:02.040Z,-3.19
2023-03-06T23:14:23.504Z,-3.15
2023-03-06T23:17:45.073Z,-3.10
2023-03-06T23:21:11.921Z,-3.09
2023-03-06T23:24:37.411Z,-3.07
2023-03-06T23:27:40.734Z,-3.04
2023-03-06T23:30:44.199Z,-3.01
2023-03-06T23:33:48.723Z,-2.96
2023-03-06T23:36:51.977Z,-2.86
2023-03-06T23:39:56.401Z,-2.75
2023-03-06T23:42:59.744Z,-2.75
2023-03-06T23:46:03.818Z,-2.71
2023-03-06T23:49:08.129Z,-2.61
2023-03-06T23:52:11.554Z,-2.50
2023-03-06T23:55:14.922Z,-2.43
2023-03-06T23:58:19.794Z,-2.29
